createdAt,value
2022-08-01T03:22:06.770Z,56.56
2022-08-01T03:23:06.374Z,56.86
2022-08-01T03:24:06.362Z,57.06
2022-08-01T03:25:06.347Z,56.93
2022-08-01T03:26:06.339Z,57.03
2022-08-01T03:31:06.286Z,58.06
2022-08-01T03:32:06.422Z,57.84
2022-08-01T03:33:06.267Z,57.96
2022-08-01T03:34:06.256Z,57.76
2022-08-01T03:37:06.228Z,57.26
2022-08-01T03:38:19.989Z,57.44
2022-08-01T03:39:07.223Z,57.36
2022-08-01T03:40:06.194Z,57.36
2022-08-01T03:41:06.182Z,57.64
2022-08-01T03:42:06.362Z,57.16
2022-08-01T03:43:06.166Z,57.23
2022-08-01T03:44:06.151Z,57.44
2022-08-01T03:45:06.145Z,57.66
2022-08-01T03:46:06.129Z,57.56
2022-08-01T03:47:06.120Z,57.46
2022-08-01T03:48:06.110Z,57.76
2022-08-01T03:49:06.188Z,57.76
2022-08-01T03:50:09.388Z,57.56
2022-08-01T03:51:07.097Z,56.65
2022-08-01T03:52:06.479Z,57.06
2022-08-01T03:53:06.055Z,57.16
2022-08-01T03:54:06.059Z,57.66
2022-08-01T03:55:06.038Z,57.96
2022-08-01T03:56:06.029Z,56.96
2022-08-01T03:57:06.016Z,57.36
2022-08-01T03:58:09.641Z,57.39
2022-08-01T03:59:05.999Z,57.49
2022-08-01T04:00:05.982Z,57.09
2022-08-01T04:01:06.029Z,56.56
2022-08-01T04:02:06.269Z,56.35
2022-08-01T04:03:05.953Z,56.63
2022-08-01T04:04:05.946Z,56.65
2022-08-01T04:05:05.940Z,56.46
2022-08-01T04:06:05.925Z,56.46
2022-08-01T04:07:05.911Z,55.85
2022-08-01T04:08:05.902Z,56.43
2022-08-01T04:09:08.094Z,56.65
2022-08-01T04:10:06.081Z,56.56
2022-08-01T04:11:05.873Z,57.36
2022-08-01T04:12:12.109Z,57.16
2022-08-01T04:13:06.870Z,57.39
2022-08-01T04:14:08.634Z,56.98
2022-08-01T04:15:05.827Z,56.76
2022-08-01T04:16:05.827Z,56.96
2022-08-01T04:17:05.807Z,57.33
2022-08-01T04:18:05.799Z,57.76
2022-08-01T04:19:05.789Z,57.86
2022-08-01T04:20:05.772Z,57.56
2022-08-01T04:21:05.766Z,57.36
2022-08-01T04:22:06.103Z,57.49
2022-08-01T04:23:05.743Z,57.16
2022-08-01T04:24:05.733Z,57.26
2022-08-01T04:25:05.723Z,56.86
2022-08-01T04:26:05.709Z,56.96
2022-08-01T04:27:05.711Z,56.56
2022-08-01T04:28:05.689Z,56.35
2022-08-01T04:29:05.681Z,57.16
2022-08-01T04:30:05.674Z,57.18
2022-08-01T04:31:05.666Z,57.26
2022-08-01T04:32:05.846Z,57.46
2022-08-01T04:33:05.641Z,57.86
2022-08-01T04:34:05.631Z,57.86
2022-08-01T04:35:05.619Z,58.06
2022-08-01T04:36:05.611Z,58.06
2022-08-01T04:37:05.599Z,57.86
2022-08-01T04:38:05.589Z,57.89
2022-08-01T04:39:05.579Z,57.49
2022-08-01T04:40:05.567Z,57.69
2022-08-01T04:41:08.993Z,58.19
2022-08-01T04:42:05.843Z,58.39
2022-08-01T04:43:05.797Z,58.19
2022-08-01T04:44:05.525Z,58.49
2022-08-01T04:45:05.511Z,58.12
2022-08-01T04:46:05.506Z,58.06
2022-08-01T04:47:05.493Z,57.99
2022-08-01T04:48:05.483Z,57.89
2022-08-01T04:49:05.563Z,57.49
2022-08-01T04:50:05.461Z,57.66
2022-08-01T04:51:05.452Z,57.46
2022-08-01T04:52:05.712Z,57.36
2022-08-01T04:53:05.428Z,57.23
2022-08-01T04:54:05.422Z,57.56
2022-08-01T04:55:05.411Z,57.44
2022-08-01T04:56:05.399Z,57.46
2022-08-01T04:57:05.385Z,57.33
2022-08-01T04:58:05.375Z,56.83
2022-08-01T04:59:05.365Z,56.73
2022-08-01T05:00:05.356Z,57.23
2022-08-01T05:01:05.409Z,56.90
2022-08-01T05:02:05.695Z,57.40
2022-08-01T05:03:05.328Z,58.11
2022-08-01T05:04:05.319Z,57.81
2022-08-01T05:05:05.305Z,58.31
2022-08-01T05:06:05.294Z,58.21
2022-08-01T05:07:05.287Z,58.11
2022-08-01T05:08:05.275Z,58.01
2022-08-01T05:09:05.262Z,57.98
2022-08-01T05:10:06.305Z,58.01
2022-08-01T05:11:05.244Z,58.11
2022-08-01T05:12:05.580Z,57.81
2022-08-01T05:13:05.218Z,58.51
2022-08-01T05:14:05.209Z,58.01
2022-08-01T05:15:05.198Z,58.11
2022-08-01T05:16:05.189Z,58.11
2022-08-01T05:17:05.179Z,58.31
2022-08-01T05:18:05.167Z,58.21
2022-08-01T05:19:05.157Z,58.28
2022-08-01T05:20:05.143Z,58.28
2022-08-01T05:21:05.133Z,58.11
2022-08-01T05:22:05.403Z,58.11
2022-08-01T05:23:05.119Z,58.01
2022-08-01T05:24:05.107Z,58.11
2022-08-01T05:25:05.096Z,58.18
2022-08-01T05:26:05.085Z,58.18
2022-08-01T05:27:05.073Z,58.31
2022-08-01T05:28:05.060Z,57.51
2022-08-01T05:29:05.055Z,57.98
2022-08-01T05:30:05.043Z,57.81
2022-08-01T05:31:05.035Z,57.91
2022-08-01T05:32:05.362Z,58.11
2022-08-01T05:33:05.011Z,58.01
2022-08-01T05:34:05.003Z,57.98
2022-08-01T05:35:04.993Z,58.11
2022-08-01T05:36:04.980Z,58.18
2022-08-01T05:37:04.974Z,58.38
2022-08-01T05:38:04.960Z,57.71
2022-08-01T05:39:04.949Z,58.08
2022-08-01T05:40:04.945Z,58.21
2022-08-01T05:41:04.933Z,58.48
2022-08-01T05:42:05.146Z,57.88
2022-08-01T05:43:04.908Z,56.98
2022-08-01T05:44:04.900Z,57.08
2022-08-01T05:45:04.889Z,55.98
2022-08-01T05:46:04.886Z,56.05
2022-08-01T05:47:04.869Z,56.15
2022-08-01T05:48:04.858Z,56.35
2022-08-01T05:49:04.902Z,56.65
2022-08-01T05:50:04.840Z,56.72
2022-08-01T05:51:04.835Z,57.75
2022-08-01T05:52:05.181Z,56.05
2022-08-01T05:53:04.809Z,56.02
2022-08-01T05:54:04.796Z,57.22
2022-08-01T05:55:04.787Z,56.95
2022-08-01T05:56:04.779Z,57.05
2022-08-01T05:57:04.768Z,57.45
2022-08-01T05:58:04.757Z,57.98
2022-08-01T05:59:04.744Z,57.95
2022-08-01T06:00:04.735Z,58.45
2022-08-01T06:01:04.733Z,58.38
2022-08-01T06:02:05.241Z,58.75
2022-08-01T06:03:04.709Z,58.88
2022-08-01T06:04:04.698Z,58.88
2022-08-01T06:05:04.685Z,58.48
2022-08-01T06:06:04.674Z,58.58
2022-08-01T06:07:04.683Z,58.05
2022-08-01T06:08:04.659Z,58.45
2022-08-01T06:09:04.647Z,57.85
2022-08-01T06:10:04.638Z,58.38
2022-08-01T06:11:04.626Z,58.68
2022-08-01T06:12:04.841Z,59.06
2022-08-01T06:13:04.612Z,59.56
2022-08-01T06:14:04.594Z,58.95
2022-08-01T06:15:04.585Z,59.58
2022-08-01T06:16:04.575Z,58.99
2022-08-01T06:17:04.569Z,58.68
2022-08-01T06:18:04.554Z,59.19
2022-08-01T06:19:04.546Z,58.86
2022-08-01T06:20:04.539Z,58.99
2022-08-01T06:21:04.525Z,58.99
2022-08-01T06:22:04.810Z,59.16
2022-08-01T06:23:31.314Z,59.16
2022-08-01T06:24:04.495Z,59.36
2022-08-01T06:25:04.490Z,59.46
2022-08-01T06:26:04.474Z,59.25
2022-08-01T06:27:04.463Z,58.95
2022-08-01T06:28:05.477Z,59.36
2022-08-01T06:29:04.444Z,59.36
2022-08-01T06:30:04.436Z,58.53
2022-08-01T06:31:04.425Z,59.86
2022-08-01T06:32:04.731Z,59.96
2022-08-01T06:33:04.410Z,59.13
2022-08-01T06:34:04.396Z,58.66
2022-08-01T06:35:04.386Z,58.63
2022-08-01T06:36:04.375Z,57.80
2022-08-01T06:37:06.268Z,58.00
2022-08-01T06:38:04.359Z,58.03
2022-08-01T06:39:04.343Z,57.83
2022-08-01T06:40:04.334Z,58.40
2022-08-01T06:41:04.328Z,58.73
2022-08-01T06:42:04.590Z,58.80
2022-08-01T06:43:04.304Z,57.92
2022-08-01T06:44:04.293Z,58.30
2022-08-01T06:45:04.286Z,58.73
2022-08-01T06:46:04.275Z,58.30
2022-08-01T06:47:04.264Z,58.80
2022-08-01T06:48:04.250Z,57.70
2022-08-01T06:49:04.376Z,57.29
2022-08-01T06:50:04.229Z,57.07
2022-08-01T06:51:04.219Z,56.37
2022-08-01T06:52:04.677Z,56.47
2022-08-01T06:53:04.197Z,56.54
2022-08-01T06:54:04.189Z,57.77
2022-08-01T06:55:04.179Z,57.74
2022-08-01T06:56:04.166Z,56.74
2022-08-01T06:57:04.155Z,56.21
2022-08-01T06:58:04.147Z,55.62
2022-08-01T06:59:04.135Z,55.21
2022-08-01T07:00:04.125Z,56.39
2022-08-01T07:01:04.162Z,55.86
2022-08-01T07:02:04.590Z,54.44
2022-08-01T07:03:04.089Z,53.34
2022-08-01T07:04:04.079Z,53.14
2022-08-01T07:05:04.115Z,52.78
2022-08-01T07:06:04.056Z,52.39
2022-08-01T07:07:04.049Z,52.69
2022-08-01T07:08:04.040Z,54.36
2022-08-01T07:09:08.423Z,54.06
2022-08-01T07:10:04.020Z,53.56
2022-08-01T07:11:04.012Z,53.74
2022-08-01T07:12:04.301Z,53.03
2022-08-01T07:13:03.987Z,53.03
2022-08-01T07:14:03.978Z,52.71
2022-08-01T07:15:03.965Z,53.71
2022-08-01T07:16:04.012Z,53.61
2022-08-01T07:17:03.949Z,54.01
2022-08-01T07:18:03.934Z,53.81
2022-08-01T07:19:03.925Z,54.08
2022-08-01T07:20:03.918Z,53.58
2022-08-01T07:21:04.968Z,53.49
2022-08-01T07:22:04.185Z,53.68
2022-08-01T07:23:03.884Z,52.99
2022-08-01T07:24:13.315Z,53.08
2022-08-01T07:25:04.881Z,53.51
2022-08-01T07:26:03.852Z,53.78
2022-08-01T07:27:23.889Z,53.68
2022-08-01T07:28:03.832Z,53.86
2022-08-01T07:29:03.822Z,53.78
2022-08-01T07:30:03.813Z,52.69
2022-08-01T07:31:03.800Z,52.76
2022-08-01T07:32:04.062Z,53.06
2022-08-01T07:33:03.783Z,51.84
2022-08-01T07:34:03.773Z,52.11
2022-08-01T07:35:03.780Z,51.81
2022-08-01T07:36:03.750Z,51.59
2022-08-01T07:37:03.741Z,50.30
2022-08-01T07:38:03.734Z,50.77
2022-08-01T07:39:03.724Z,50.87
2022-08-01T07:40:03.715Z,49.53
2022-08-01T07:41:03.700Z,49.53
2022-08-01T07:42:07.490Z,48.24
2022-08-01T07:43:03.678Z,48.93
2022-08-01T07:44:04.883Z,48.44
2022-08-01T07:45:03.661Z,48.24
2022-08-01T07:46:03.652Z,48.37
2022-08-01T07:47:03.644Z,48.16
2022-08-01T07:48:03.626Z,49.06
2022-08-01T07:49:03.685Z,48.66
2022-08-01T07:50:03.610Z,47.77
2022-08-01T07:51:03.597Z,47.37
2022-08-01T07:52:04.603Z,47.94
2022-08-01T07:53:03.574Z,48.24
2022-08-01T07:54:03.567Z,46.97
2022-08-01T07:55:03.555Z,47.55
2022-08-01T07:56:03.545Z,46.53
2022-08-01T07:57:03.538Z,46.11
2022-08-01T07:58:03.525Z,46.41
2022-08-01T07:59:03.515Z,46.11
2022-08-01T08:00:03.508Z,46.19
2022-08-01T08:01:03.495Z,45.28
2022-08-01T08:02:03.890Z,45.15
2022-08-01T08:03:03.474Z,44.39
2022-08-01T08:04:03.464Z,44.73
2022-08-01T08:05:03.456Z,44.04
2022-08-01T08:06:03.445Z,44.02
2022-08-01T08:07:03.916Z,43.33
2022-08-01T08:08:03.424Z,42.66
2022-08-01T08:09:03.417Z,42.95
2022-08-01T08:10:03.406Z,42.95
2022-08-01T08:11:03.400Z,43.57
2022-08-01T08:12:03.559Z,42.77
2022-08-01T08:13:03.390Z,43.35
2022-08-01T08:14:03.362Z,43.07
2022-08-01T08:15:03.357Z,44.26
2022-08-01T08:16:03.342Z,42.44
2022-08-01T08:17:03.332Z,42.32
2022-08-01T08:18:03.322Z,43.01
2022-08-01T08:19:03.316Z,42.10
2022-08-01T08:20:03.303Z,40.62
2022-08-01T08:21:06.619Z,41.23
2022-08-01T08:22:03.500Z,41.13
2022-08-01T08:23:03.273Z,41.72
2022-08-01T08:24:03.266Z,42.04
2022-08-01T08:25:03.253Z,41.82
2022-08-01T08:26:03.243Z,41.31
2022-08-01T08:27:03.233Z,41.39
2022-08-01T08:28:03.226Z,40.97
2022-08-01T08:29:03.215Z,40.19
2022-08-01T08:30:03.209Z,39.69
2022-08-01T08:31:03.198Z,40.78
2022-08-01T08:32:03.186Z,39.08
2022-08-01T08:33:03.180Z,38.69
2022-08-01T08:34:03.174Z,38.86
2022-08-01T08:35:03.159Z,38.45
2022-08-01T08:36:03.146Z,39.34
2022-08-01T08:37:03.140Z,38.33
2022-08-01T08:38:03.133Z,37.86
2022-08-01T08:39:03.116Z,37.84
2022-08-01T08:40:03.104Z,38.02
2022-08-01T08:41:03.096Z,37.33
2022-08-01T08:42:03.258Z,37.45
2022-08-01T08:43:03.079Z,37.66
2022-08-01T08:44:03.070Z,36.79
2022-08-01T08:45:03.076Z,36.57
2022-08-01T08:46:03.056Z,37.37
2022-08-01T08:47:03.053Z,36.77
2022-08-01T08:48:03.029Z,37.17
2022-08-01T08:49:03.153Z,37.86
2022-08-01T08:50:03.009Z,35.08
2022-08-01T08:51:03.003Z,35.87
2022-08-01T08:52:03.262Z,35.95
2022-08-01T08:53:02.985Z,36.23
2022-08-01T08:54:02.977Z,35.64
2022-08-01T08:55:02.973Z,36.03
2022-08-01T08:56:02.954Z,36.23
2022-08-01T08:57:02.941Z,35.41
2022-08-01T08:58:02.933Z,35.58
2022-08-01T08:59:02.926Z,34.37
2022-08-01T09:00:02.919Z,35.47
2022-08-01T09:01:02.910Z,34.08
2022-08-01T09:02:02.894Z,34.99
2022-08-01T09:03:02.997Z,35.62
2022-08-01T09:04:02.880Z,36.03
2022-08-01T09:05:02.873Z,37.81
2022-08-01T09:06:02.858Z,36.31
2022-08-01T09:07:02.849Z,35.21
2022-08-01T09:08:02.837Z,34.62
2022-08-01T09:09:02.830Z,34.99
2022-08-01T09:10:02.819Z,34.58
2022-08-01T09:11:02.812Z,33.47
2022-08-01T09:12:02.803Z,33.16
2022-08-01T09:13:02.792Z,32.65
2022-08-01T09:14:02.783Z,32.34
2022-08-01T09:15:02.770Z,32.03
2022-08-01T09:16:02.763Z,32.25
2022-08-01T09:17:02.750Z,32.03
2022-08-01T09:18:02.752Z,32.79
2022-08-01T09:19:02.734Z,31.01
2022-08-01T09:20:02.725Z,31.23
2022-08-01T09:21:02.720Z,32.23
2022-08-01T09:22:02.710Z,33.50
2022-08-01T09:23:02.696Z,32.46
2022-08-01T09:24:02.688Z,31.66
2022-08-01T09:25:02.681Z,31.17
2022-08-01T09:26:02.666Z,30.55
2022-08-01T09:27:03.304Z,29.05
2022-08-01T09:28:02.651Z,28.77
2022-08-01T09:29:02.640Z,29.15
2022-08-01T09:30:02.632Z,28.68
2022-08-01T09:31:02.624Z,29.13
2022-08-01T09:32:02.613Z,28.23
2022-08-01T09:33:06.147Z,28.23
2022-08-01T09:34:03.610Z,27.24
2022-08-01T09:35:02.582Z,27.81
2022-08-01T09:36:02.578Z,28.57
2022-08-01T09:37:02.567Z,29.98
2022-08-01T09:38:02.560Z,30.27
2022-08-01T09:39:02.549Z,29.65
2022-08-01T09:40:02.543Z,28.93
2022-08-01T09:41:02.533Z,28.10
2022-08-01T09:42:02.522Z,27.69
2022-08-01T09:43:02.510Z,26.82
2022-08-01T09:44:02.508Z,27.96
2022-08-01T09:45:02.493Z,29.55
2022-08-01T09:46:02.485Z,29.53
2022-08-01T09:47:07.922Z,28.73
2022-08-01T09:48:03.493Z,28.19
2022-08-01T09:49:02.521Z,29.30
2022-08-01T09:50:05.272Z,30.37
2022-08-01T09:51:07.270Z,29.55
2022-08-01T09:52:03.457Z,29.15
2022-08-01T09:53:02.424Z,28.97
2022-08-01T09:54:02.415Z,30.13
2022-08-01T09:55:02.440Z,29.74
2022-08-01T09:56:02.398Z,29.46
2022-08-01T09:57:02.388Z,30.34
2022-08-01T09:58:02.385Z,28.64
2022-08-01T09:59:02.968Z,28.83
2022-08-01T10:00:02.384Z,28.61
2022-08-01T10:01:02.351Z,27.52
2022-08-01T10:02:02.339Z,27.67
2022-08-01T10:03:10.528Z,26.08
2022-08-01T10:04:03.341Z,25.49
2022-08-01T10:05:07.361Z,25.28
2022-08-01T10:06:02.310Z,24.87
2022-08-01T10:07:02.298Z,24.58
2022-08-01T10:08:02.285Z,25.84
2022-08-01T10:09:02.280Z,25.04
2022-08-01T10:10:02.271Z,23.96
2022-08-01T10:11:02.262Z,24.74
2022-08-01T10:12:02.254Z,24.47
2022-08-01T10:13:03.355Z,25.48
2022-08-01T10:14:02.235Z,25.20
2022-08-01T10:15:02.227Z,25.70
2022-08-01T10:16:02.219Z,26.30
2022-08-01T10:17:05.380Z,26.78
2022-08-01T10:18:02.201Z,25.81
2022-08-01T10:19:02.191Z,26.08
2022-08-01T10:20:02.180Z,25.89
2022-08-01T10:21:02.190Z,26.20
2022-08-01T10:22:02.166Z,26.28
2022-08-01T10:23:05.780Z,27.03
2022-08-01T10:24:03.292Z,25.38
2022-08-01T10:25:02.138Z,25.78
2022-08-01T10:26:02.134Z,26.53
2022-08-01T10:27:09.223Z,26.16
2022-08-01T10:28:02.114Z,25.97
2022-08-01T10:29:02.107Z,25.78
2022-08-01T10:30:08.528Z,25.67
2022-08-01T10:31:02.092Z,24.48
2022-08-01T10:32:02.085Z,24.18
2022-08-01T10:33:02.072Z,24.26
2022-08-01T10:34:02.062Z,24.16
2022-08-01T10:35:06.715Z,23.97
2022-08-01T10:36:02.046Z,24.26
2022-08-01T10:37:02.037Z,24.04
2022-08-01T10:38:02.026Z,24.34
2022-08-01T10:39:02.016Z,24.90
2022-08-01T10:40:28.921Z,23.63
2022-08-01T10:41:03.027Z,23.35
2022-08-01T10:42:01.996Z,24.63
2022-08-01T10:43:01.984Z,23.95
2022-08-01T10:44:01.979Z,24.34
2022-08-01T10:45:01.970Z,23.87
2022-08-01T10:46:01.961Z,24.99
2022-08-01T10:47:01.952Z,25.67
2022-08-01T10:48:02.059Z,26.30
2022-08-01T10:49:01.992Z,26.62
2022-08-01T10:50:01.927Z,26.73
2022-08-01T10:51:01.938Z,26.71
2022-08-01T10:52:01.911Z,26.19
2022-08-01T10:53:05.654Z,24.79
2022-08-01T10:54:01.892Z,25.43
2022-08-01T10:55:01.884Z,24.82
2022-08-01T10:56:02.785Z,23.54
2022-08-01T10:57:01.871Z,23.72
2022-08-01T10:58:01.861Z,24.12
2022-08-01T10:59:01.854Z,25.70
2022-08-01T11:00:01.980Z,27.21
2022-08-01T11:01:01.889Z,27.89
2022-08-01T11:02:01.923Z,26.20
2022-08-01T11:03:01.845Z,26.56
2022-08-01T11:04:02.135Z,26.48
2022-08-01T11:05:01.806Z,26.19
2022-08-01T11:06:01.793Z,26.26
2022-08-01T11:07:01.785Z,26.20
2022-08-01T11:08:01.777Z,26.99
2022-08-01T11:09:01.771Z,26.89
2022-08-01T11:10:01.771Z,27.84
2022-08-01T11:11:01.751Z,26.94
2022-08-01T11:12:01.742Z,26.36
2022-08-01T11:13:01.737Z,27.41
2022-08-01T11:14:01.724Z,29.69
2022-08-01T11:15:02.661Z,28.59
2022-08-01T11:16:13.111Z,27.88
2022-08-01T11:17:02.724Z,26.85
2022-08-01T11:18:01.909Z,25.44
2022-08-01T11:19:01.682Z,24.03
2022-08-01T11:20:01.682Z,24.23
2022-08-01T11:21:58.027Z,24.43
2022-08-01T11:22:01.939Z,25.05
2022-08-01T11:23:02.368Z,26.13
2022-08-01T11:24:01.645Z,26.13
2022-08-01T11:25:01.638Z,26.51
2022-08-01T11:26:06.197Z,25.12
2022-08-01T11:27:02.641Z,25.20
2022-08-01T11:28:01.611Z,23.91
2022-08-01T11:29:19.579Z,23.43
2022-08-01T11:30:02.613Z,23.73
2022-08-01T11:31:01.588Z,24.21
2022-08-01T11:32:01.575Z,23.72
2022-08-01T11:33:10.454Z,22.92
2022-08-01T11:34:03.595Z,23.12
2022-08-01T11:35:01.552Z,23.01
2022-08-01T11:36:01.566Z,23.40
2022-08-01T11:37:01.535Z,23.41
2022-08-01T11:38:01.529Z,24.63
2022-08-01T11:39:01.649Z,25.95
2022-08-01T11:40:01.507Z,27.37
2022-08-01T11:41:01.496Z,28.09
2022-08-01T11:42:01.490Z,27.97
2022-08-01T11:43:01.482Z,27.69
2022-08-01T11:44:01.475Z,27.38
2022-08-01T11:45:01.465Z,27.09
2022-08-01T11:46:01.460Z,26.16
2022-08-01T11:47:01.452Z,26.63
2022-08-01T11:48:01.453Z,25.73
2022-08-01T11:49:01.502Z,24.84
2022-08-01T11:50:01.427Z,24.92
2022-08-01T11:51:02.190Z,24.73
2022-08-01T11:52:01.406Z,25.22
2022-08-01T11:53:01.401Z,25.61
2022-08-01T11:54:01.390Z,24.90
2022-08-01T11:55:01.382Z,25.09
2022-08-01T11:56:01.376Z,24.78
2022-08-01T11:57:01.366Z,23.78
2022-08-01T11:58:01.359Z,24.16
2022-08-01T11:59:01.358Z,24.36
2022-08-01T12:00:03.180Z,24.71
2022-08-01T12:01:01.337Z,25.10
2022-08-01T12:02:01.392Z,24.42
2022-08-01T12:03:01.382Z,24.82
2022-08-01T12:04:01.323Z,25.00
2022-08-01T12:05:01.299Z,25.67
2022-08-01T12:06:01.290Z,23.89
2022-08-01T12:07:01.281Z,23.38
2022-08-01T12:08:01.273Z,23.18
2022-08-01T12:09:01.261Z,22.97
2022-08-01T12:10:01.260Z,23.64
2022-08-01T12:11:02.000Z,23.74
2022-08-01T12:12:01.238Z,23.27
2022-08-01T12:13:01.234Z,23.76
2022-08-01T12:14:01.227Z,24.40
2022-08-01T12:15:01.216Z,26.15
2022-08-01T12:16:01.208Z,27.01
2022-08-01T12:17:01.202Z,25.80
2022-08-01T12:18:01.194Z,25.09
2022-08-01T12:19:01.184Z,24.00
2022-08-01T12:20:01.176Z,24.19
2022-08-01T12:21:01.321Z,23.98
2022-08-01T12:22:01.158Z,24.07
2022-08-01T12:23:01.155Z,25.10
2022-08-01T12:24:01.151Z,25.14
2022-08-01T12:25:01.138Z,25.03
2022-08-01T12:26:01.128Z,25.32
2022-08-01T12:27:01.129Z,25.22
2022-08-01T12:28:01.114Z,24.43
2022-08-01T12:29:01.106Z,24.41
2022-08-01T12:30:02.292Z,24.51
2022-08-01T12:31:01.089Z,23.82
2022-08-01T12:32:01.083Z,25.14
2022-08-01T12:33:01.071Z,26.22
2022-08-01T12:34:01.068Z,25.61
2022-08-01T12:35:01.057Z,24.51
2022-08-01T12:36:01.053Z,23.99
2022-08-01T12:37:01.047Z,22.89
2022-08-01T12:38:01.031Z,22.71
2022-08-01T12:39:01.025Z,23.29
2022-08-01T12:40:01.016Z,23.19
2022-08-01T12:41:01.009Z,23.10
2022-08-01T12:42:01.009Z,22.90
2022-08-01T12:43:00.992Z,23.38
2022-08-01T12:44:00.989Z,23.49
2022-08-01T12:45:00.978Z,23.79
2022-08-01T12:46:01.236Z,23.29
2022-08-01T12:47:00.963Z,23.16
2022-08-01T12:48:00.958Z,22.18
2022-08-01T12:49:01.043Z,21.69
2022-08-01T12:50:00.941Z,22.36
2022-08-01T12:51:00.932Z,22.95
2022-08-01T12:52:01.072Z,22.68
2022-08-01T12:53:00.918Z,22.79
2022-08-01T12:54:00.914Z,23.49
2022-08-01T12:55:00.902Z,23.82
2022-08-01T12:56:00.890Z,24.13
2022-08-01T12:57:00.887Z,24.84
2022-08-01T12:58:00.876Z,25.03
2022-08-01T12:59:00.869Z,25.32
2022-08-01T13:00:00.858Z,24.85
2022-08-01T13:01:00.897Z,24.73
2022-08-01T13:02:00.880Z,24.99
2022-08-01T13:06:06.009Z,24.31
2022-08-01T13:06:07.593Z,23.68
2022-08-01T13:07:07.908Z,24.59
2022-08-01T13:08:07.469Z,24.23
2022-08-01T13:09:07.397Z,24.92
2022-08-01T13:10:07.421Z,24.31
2022-08-01T13:21:05.938Z,24.10
2022-08-01T13:21:07.315Z,23.31
2022-08-01T13:27:54.011Z,23.49
2022-08-01T13:27:56.650Z,22.01
2022-08-01T13:31:16.489Z,22.48
2022-08-01T13:31:18.844Z,21.78
2022-08-01T13:32:28.243Z,21.79
2022-08-01T13:35:31.676Z,23.41
2022-08-01T13:35:34.842Z,23.60
2022-08-01T13:45:15.192Z,23.12
2022-08-01T13:45:16.692Z,22.72
2022-08-01T13:46:18.758Z,24.03
2022-08-01T13:47:16.965Z,23.91
2022-08-01T13:50:09.549Z,22.93
2022-08-01T13:50:10.946Z,23.40
2022-08-01T13:51:21.931Z,22.89
2022-08-01T14:16:08.081Z,22.32
2022-08-01T14:16:09.498Z,21.72
2022-08-01T15:52:41.364Z,21.90
2022-08-01T15:52:42.772Z,22.01
2022-08-01T15:53:42.764Z,21.90
2022-08-01T15:54:43.298Z,22.01
2022-08-01T15:55:48.875Z,22.62
2022-08-01T15:56:43.763Z,23.03
2022-08-01T16:15:36.217Z,22.94
2022-08-01T16:15:38.005Z,22.91
2022-08-01T16:16:36.309Z,23.01
2022-08-01T16:17:39.372Z,22.73
2022-08-01T16:18:37.309Z,22.93
2022-08-01T16:19:36.285Z,23.13
2022-08-01T16:20:39.105Z,22.92
2022-08-01T16:21:37.363Z,22.62
2022-08-01T16:22:36.260Z,22.82
2022-08-01T16:23:36.249Z,22.54
2022-08-01T16:24:36.247Z,22.55
2022-08-01T16:25:36.236Z,22.83
2022-08-01T16:26:36.232Z,22.62
2022-08-01T16:27:38.940Z,22.62
2022-08-01T16:29:34.891Z,23.48
2022-08-01T16:29:36.470Z,24.87
2022-08-01T16:30:36.294Z,25.15
2022-08-01T16:31:38.039Z,24.94
2022-08-01T16:32:47.954Z,24.13
2022-08-01T16:33:42.910Z,23.83
2022-08-01T16:34:37.280Z,24.35
2022-08-01T16:35:36.839Z,24.73
2022-08-01T16:36:36.241Z,23.46
2022-08-01T16:37:36.231Z,23.77
2022-08-01T16:38:36.221Z,24.15
2022-08-01T16:39:36.212Z,24.14
2022-08-01T16:40:47.380Z,23.65
2022-08-01T16:41:37.674Z,23.83
2022-08-01T16:42:36.187Z,22.96
2022-08-01T16:43:36.179Z,23.14
2022-08-01T16:44:36.171Z,22.96
2022-08-01T16:45:40.667Z,23.82
2022-08-01T16:46:37.173Z,22.65
2022-08-01T16:47:36.147Z,22.34
2022-08-01T16:48:36.140Z,22.34
2022-08-01T16:49:36.218Z,23.41
2022-08-01T16:50:36.125Z,22.52
2022-08-01T16:51:40.730Z,22.54
2022-08-01T16:52:42.164Z,22.63
2022-08-01T16:53:37.127Z,22.73
2022-08-01T16:54:36.096Z,22.75
2022-08-01T16:55:49.960Z,23.07
2022-08-01T16:56:37.101Z,23.26
2022-08-01T16:57:36.070Z,23.74
2022-08-01T16:58:36.064Z,23.27
2022-08-01T16:59:41.012Z,24.37
2022-08-01T17:00:36.050Z,24.57
2022-08-01T17:01:59.986Z,24.29
2022-08-01T17:02:37.103Z,24.86
2022-08-01T17:03:46.991Z,24.65
2022-08-01T17:04:36.010Z,24.04
2022-08-01T17:05:36.003Z,23.85
2022-08-01T17:06:35.994Z,24.23
2022-08-01T17:07:35.984Z,23.07
2022-08-01T17:08:35.974Z,23.35
2022-08-01T17:09:41.352Z,23.95
2022-08-01T17:10:35.961Z,23.35
2022-08-01T17:11:35.953Z,23.16
2022-08-01T17:12:35.938Z,23.87
2022-08-01T17:13:35.935Z,23.78
2022-08-01T17:14:35.923Z,24.58
2022-08-01T17:15:36.512Z,24.48
2022-08-01T17:16:35.906Z,24.47
2022-08-01T17:17:35.899Z,23.97
2022-08-01T17:18:35.890Z,23.87
2022-08-01T17:19:35.877Z,23.78
2022-08-01T17:20:35.876Z,23.97
2022-08-01T17:21:39.767Z,24.65
2022-08-01T17:22:35.857Z,24.26
2022-08-01T17:23:35.870Z,24.57
2022-08-01T17:24:35.834Z,24.57
2022-08-01T17:25:35.831Z,25.27
2022-08-01T17:26:35.820Z,25.37
2022-08-01T17:27:35.811Z,25.37
2022-08-01T17:28:35.800Z,25.78
2022-08-01T17:29:43.598Z,25.79
2022-08-01T17:30:35.779Z,26.21
2022-08-01T17:31:35.773Z,26.42
2022-08-01T17:32:35.764Z,26.83
2022-08-01T17:33:45.551Z,27.25
2022-08-01T17:34:36.769Z,27.84
2022-08-01T17:35:35.737Z,28.14
2022-08-01T17:36:35.726Z,28.73
2022-08-01T17:37:35.719Z,28.14
2022-08-01T17:38:35.710Z,28.35
2022-08-01T17:39:39.278Z,29.15
2022-08-01T17:40:40.525Z,29.26
2022-08-01T17:41:35.683Z,29.65
2022-08-01T17:42:35.669Z,29.46
2022-08-01T17:43:35.663Z,29.94
2022-08-01T17:44:35.654Z,29.96
2022-08-01T17:45:39.349Z,30.17
2022-08-01T17:46:36.656Z,30.26
2022-08-01T17:47:50.266Z,30.16
2022-08-01T17:48:36.645Z,30.68
2022-08-01T17:49:55.508Z,30.87
2022-08-01T17:50:36.617Z,30.89
2022-08-01T17:51:35.587Z,31.40
2022-08-01T17:52:35.586Z,31.69
2022-08-01T17:53:35.569Z,31.80
2022-08-01T17:54:35.558Z,32.10
2022-08-01T17:55:53.854Z,32.31
2022-08-01T17:56:39.259Z,32.40
2022-08-01T17:57:35.530Z,32.39
2022-08-01T17:58:51.144Z,32.31
2022-08-01T17:59:35.510Z,32.29
2022-08-01T18:00:35.501Z,32.20
2022-08-01T18:01:35.523Z,32.59
2022-08-01T18:02:35.482Z,32.40
2022-08-01T18:03:41.517Z,32.40
2022-08-01T18:04:35.464Z,32.20
2022-08-01T18:05:37.201Z,32.11
2022-08-01T18:06:35.960Z,32.80
2022-08-01T18:08:00.558Z,32.81
2022-08-01T18:08:36.445Z,32.42
2022-08-01T18:09:42.410Z,32.81
2022-08-01T18:10:35.401Z,32.72
2022-08-01T18:11:37.375Z,32.93
2022-08-01T18:12:35.383Z,32.93
2022-08-01T18:13:35.372Z,33.12
2022-08-01T18:14:40.747Z,33.53
2022-08-01T18:15:35.355Z,33.24
2022-08-01T18:16:35.356Z,33.34
2022-08-01T18:17:35.338Z,33.44
2022-08-01T18:18:35.328Z,33.14
2022-08-01T18:19:35.322Z,33.24
2022-08-01T18:20:35.309Z,33.24
2022-08-01T18:21:38.544Z,33.64
2022-08-01T18:22:35.285Z,33.83
2022-08-01T18:23:35.277Z,34.22
2022-08-01T18:24:35.271Z,34.74
2022-08-01T18:25:35.258Z,35.32
2022-08-01T18:26:35.247Z,35.34
2022-08-01T18:28:29.587Z,35.24
2022-08-01T18:28:40.982Z,35.83
2022-08-01T18:29:47.560Z,37.43
2022-08-01T18:30:35.209Z,36.84
2022-08-01T18:31:35.200Z,36.66
2022-08-01T18:32:35.190Z,38.83
2022-08-01T18:33:35.182Z,38.23
2022-08-01T18:34:35.170Z,38.15
2022-08-01T18:35:52.066Z,38.07
2022-08-01T18:36:36.168Z,38.57
2022-08-01T18:37:35.224Z,37.98
2022-08-01T18:38:39.039Z,37.88
2022-08-01T18:39:36.138Z,37.20
2022-08-01T18:40:35.106Z,36.89
2022-08-01T18:41:35.097Z,38.57
2022-08-01T18:42:35.087Z,38.59
2022-08-01T18:43:35.079Z,38.39
2022-08-01T18:44:35.067Z,38.29
2022-08-01T18:45:38.413Z,38.78
2022-08-01T18:46:35.046Z,39.18
2022-08-01T18:47:35.041Z,39.30
2022-08-01T18:48:35.028Z,39.00
2022-08-01T18:49:35.079Z,38.92
2022-08-01T18:50:35.009Z,39.10
2022-08-01T18:51:37.802Z,39.31
2022-08-01T18:52:34.996Z,39.52
2022-08-01T18:53:34.982Z,39.81
2022-08-01T18:54:34.973Z,39.61
2022-08-01T18:55:34.959Z,39.83
2022-08-01T18:56:34.952Z,39.63
2022-08-01T18:57:36.842Z,39.83
2022-08-01T18:58:34.929Z,40.03
2022-08-01T18:59:34.918Z,40.03
2022-08-01T19:00:34.910Z,39.92
2022-08-01T19:01:35.017Z,39.75